createdAt,value
2023-02-06T00:01:39.245Z,92.60
2023-02-06T00:04:07.234Z,92.56
2023-02-06T00:06:35.473Z,92.61
2023-02-06T00:09:04.558Z,92.54
2023-02-06T00:11:33.203Z,92.81
2023-02-06T00:14:01.582Z,92.78
2023-02-06T00:16:32.056Z,92.59
2023-02-06T00:19:01.136Z,92.43
2023-02-06T00:21:29.956Z,92.49
2023-02-06T00:24:00.669Z,92.53
2023-02-06T00:26:29.380Z,92.32
2023-02-06T00:28:57.488Z,92.48
2023-02-06T00:31:25.882Z,92.48
2023-02-06T00:33:53.874Z,92.30
2023-02-06T00:36:21.782Z,92.40
2023-02-06T00:38:49.718Z,92.30
2023-02-06T00:41:17.661Z,92.30
2023-02-06T00:43:45.809Z,92.28
2023-02-06T00:46:13.747Z,92.22
2023-02-06T00:48:41.903Z,92.37
2023-02-06T00:51:09.850Z,92.30
2023-02-06T00:53:38.970Z,92.48
2023-02-06T00:56:07.302Z,92.48
2023-02-06T00:58:35.236Z,92.65
2023-02-06T01:01:04.653Z,92.51
2023-02-06T01:03:32.583Z,92.62
2023-02-06T01:06:00.484Z,92.66
2023-02-06T01:08:28.515Z,92.63
2023-02-06T01:10:56.416Z,92.75
2023-02-06T01:13:24.336Z,92.67
2023-02-06T01:15:52.447Z,92.52
2023-02-06T01:18:23.214Z,92.89
2023-02-06T01:20:51.525Z,92.85
2023-02-06T01:23:19.512Z,92.75
2023-02-06T01:25:47.388Z,92.85
2023-02-06T01:28:17.483Z,92.91
2023-02-06T01:30:45.507Z,92.78
2023-02-06T01:33:13.507Z,92.86
2023-02-06T01:35:41.388Z,92.73
2023-02-06T01:38:09.999Z,92.89
2023-02-06T01:40:38.878Z,92.92
2023-02-06T01:43:17.131Z,92.38
2023-02-06T01:45:47.156Z,92.82
2023-02-06T01:48:20.195Z,92.66
2023-02-06T01:50:54.303Z,92.83
2023-02-06T01:53:24.744Z,92.76
2023-02-06T01:55:56.484Z,92.65
2023-02-06T01:58:30.203Z,92.69
2023-02-06T02:01:00.265Z,92.66
2023-02-06T02:03:32.099Z,92.80
2023-02-06T02:06:07.204Z,92.73
2023-02-06T02:08:45.252Z,92.78
2023-02-06T02:11:23.305Z,92.70
2023-02-06T02:13:53.720Z,92.83
2023-02-06T02:16:45.319Z,92.79
2023-02-06T02:19:59.519Z,92.81
2023-02-06T02:22:49.472Z,92.91
2023-02-06T02:25:36.316Z,92.70
2023-02-06T02:28:22.573Z,92.64
2023-02-06T02:31:20.147Z,92.76
2023-02-06T02:34:11.450Z,92.39
2023-02-06T02:37:14.805Z,92.37
2023-02-06T02:39:43.458Z,92.57
2023-02-06T02:42:29.993Z,92.42
2023-02-06T02:45:13.109Z,92.14
2023-02-06T02:48:14.356Z,92.46
2023-02-06T02:50:43.254Z,92.09
2023-02-06T02:53:13.239Z,91.83
2023-02-06T02:55:41.529Z,92.15
2023-02-06T02:58:13.286Z,92.22
2023-02-06T03:01:00.830Z,92.22
2023-02-06T03:03:31.937Z,92.39
2023-02-06T03:06:21.513Z,92.45
2023-02-06T03:09:01.483Z,92.39
2023-02-06T03:11:30.157Z,92.44
2023-02-06T03:14:06.325Z,92.33
2023-02-06T03:16:42.698Z,92.46
2023-02-06T03:19:21.611Z,92.23
2023-02-06T03:21:50.587Z,91.60
2023-02-06T03:24:26.483Z,91.68
2023-02-06T03:27:01.762Z,92.04
2023-02-06T03:29:33.865Z,92.24
2023-02-06T03:32:28.584Z,92.61
2023-02-06T03:35:02.589Z,92.76
2023-02-06T03:37:31.144Z,93.01
2023-02-06T03:40:01.614Z,93.37
2023-02-06T03:42:30.985Z,93.10
2023-02-06T03:45:11.132Z,93.01
2023-02-06T03:47:40.194Z,92.51
2023-02-06T03:50:10.543Z,92.21
2023-02-06T03:52:43.775Z,92.02
2023-02-06T03:55:19.804Z,91.97
2023-02-06T03:57:59.215Z,92.53
2023-02-06T04:00:29.135Z,92.93
2023-02-06T04:02:58.686Z,93.30
2023-02-06T04:05:28.171Z,93.44
2023-02-06T04:07:56.189Z,93.41
2023-02-06T04:10:26.305Z,93.48
2023-02-06T04:12:54.598Z,93.66
2023-02-06T04:15:23.187Z,93.86
2023-02-06T04:18:00.013Z,93.89
2023-02-06T04:20:29.842Z,94.11
2023-02-06T04:22:58.770Z,94.18
2023-02-06T04:25:26.817Z,94.11
2023-02-06T04:27:54.784Z,94.20
2023-02-06T04:30:22.709Z,94.16
2023-02-06T04:32:51.472Z,94.09
2023-02-06T04:35:19.444Z,94.08
2023-02-06T04:37:47.271Z,94.10
2023-02-06T04:40:15.259Z,94.15
2023-02-06T04:42:43.113Z,94.21
2023-02-06T04:45:11.229Z,94.55
2023-02-06T04:47:39.653Z,94.66
2023-02-06T04:50:08.032Z,94.74
2023-02-06T04:52:36.028Z,94.82
2023-02-06T04:55:04.052Z,95.00
2023-02-06T04:57:32.374Z,95.01
2023-02-06T05:00:00.296Z,94.99
2023-02-06T05:02:28.397Z,95.09
2023-02-06T05:04:56.383Z,94.96
2023-02-06T05:07:24.269Z,95.16
2023-02-06T05:09:52.118Z,94.98
2023-02-06T05:12:20.117Z,94.44
2023-02-06T05:14:48.025Z,94.33
2023-02-06T05:17:15.994Z,94.88
2023-02-06T05:19:43.879Z,94.91
2023-02-06T05:22:11.790Z,95.06
2023-02-06T05:24:39.639Z,95.21
2023-02-06T05:27:07.805Z,95.26
2023-02-06T05:29:35.741Z,95.37
2023-02-06T05:32:03.894Z,95.69
2023-02-06T05:34:31.769Z,95.75
2023-02-06T05:36:59.757Z,95.81
2023-02-06T05:39:27.803Z,95.78
2023-02-06T05:41:55.739Z,95.75
2023-02-06T05:44:23.698Z,95.61
2023-02-06T05:46:51.619Z,94.99
2023-02-06T05:49:19.580Z,94.66
2023-02-06T05:51:47.613Z,94.80
2023-02-06T05:54:15.739Z,95.10
2023-02-06T05:56:44.796Z,95.32
2023-02-06T05:59:12.746Z,95.50
2023-02-06T06:01:40.652Z,95.60
2023-02-06T06:04:08.697Z,95.69
2023-02-06T06:06:36.908Z,95.85
2023-02-06T06:09:05.140Z,95.87
2023-02-06T06:11:33.121Z,95.99
2023-02-06T06:14:01.072Z,96.04
2023-02-06T06:16:28.993Z,96.03
2023-02-06T06:18:56.888Z,96.22
2023-02-06T06:21:24.769Z,96.03
2023-02-06T06:23:52.827Z,96.01
2023-02-06T06:26:20.898Z,96.07
2023-02-06T06:28:48.798Z,96.15
2023-02-06T06:31:16.742Z,96.32
2023-02-06T06:33:45.024Z,96.22
2023-02-06T06:36:14.496Z,96.47
2023-02-06T06:38:42.575Z,96.41
2023-02-06T06:41:10.656Z,95.89
2023-02-06T06:43:38.624Z,95.43
2023-02-06T06:46:06.849Z,95.24
2023-02-06T06:48:34.887Z,94.73
2023-02-06T06:51:02.797Z,94.67
2023-02-06T06:53:30.697Z,94.82
2023-02-06T06:56:05.840Z,94.97
2023-02-06T06:58:34.587Z,95.31
2023-02-06T07:01:02.513Z,95.79
2023-02-06T07:03:30.955Z,95.99
2023-02-06T07:05:58.913Z,96.27
2023-02-06T07:08:26.779Z,96.36
2023-02-06T07:10:54.630Z,96.25
2023-02-06T07:13:22.659Z,96.17
2023-02-06T07:15:50.565Z,96.25
2023-02-06T07:18:18.405Z,96.59
2023-02-06T07:20:46.404Z,95.80
2023-02-06T07:23:14.331Z,95.62
2023-02-06T07:25:42.243Z,95.24
2023-02-06T07:28:10.273Z,94.65
2023-02-06T07:30:38.436Z,94.47
2023-02-06T07:33:06.648Z,94.28
2023-02-06T07:35:34.710Z,94.43
2023-02-06T07:38:02.901Z,94.20
2023-02-06T07:40:44.016Z,94.17
2023-02-06T07:43:13.926Z,94.40
2023-02-06T07:45:42.819Z,94.11
2023-02-06T07:48:11.485Z,93.77
2023-02-06T07:50:39.524Z,93.69
2023-02-06T07:53:07.655Z,93.44
2023-02-06T07:55:37.630Z,93.40
2023-02-06T07:58:05.931Z,93.29
2023-02-06T08:00:33.968Z,93.15
2023-02-06T08:03:01.835Z,92.94
2023-02-06T08:05:29.798Z,92.67
2023-02-06T08:07:58.224Z,92.34
2023-02-06T08:10:26.507Z,92.13
2023-02-06T08:12:54.542Z,92.18
2023-02-06T08:15:22.975Z,91.92
2023-02-06T08:17:50.932Z,92.07
2023-02-06T08:20:18.933Z,92.14
2023-02-06T08:22:46.851Z,92.61
2023-02-06T08:25:14.881Z,92.24
2023-02-06T08:27:42.815Z,92.28
2023-02-06T08:30:12.376Z,91.86
2023-02-06T08:32:40.551Z,91.29
2023-02-06T08:35:10.611Z,91.46
2023-02-06T08:37:38.565Z,90.96
2023-02-06T08:40:07.856Z,90.60
2023-02-06T08:42:35.763Z,90.56
2023-02-06T08:45:03.910Z,90.39
2023-02-06T08:47:31.785Z,89.98
2023-02-06T08:50:01.568Z,90.11
2023-02-06T08:52:31.108Z,89.98
2023-02-06T08:54:58.952Z,90.42
2023-02-06T08:57:26.910Z,90.89
2023-02-06T08:59:54.747Z,90.30
2023-02-06T09:02:22.818Z,90.80
2023-02-06T09:04:51.018Z,91.01
2023-02-06T09:07:18.926Z,90.83
2023-02-06T09:09:47.103Z,91.13
2023-02-06T09:12:15.670Z,90.84
2023-02-06T09:14:43.602Z,91.00
2023-02-06T09:17:11.495Z,91.04
2023-02-06T09:19:39.618Z,91.00
2023-02-06T09:22:07.561Z,90.79
2023-02-06T09:24:35.443Z,89.74
2023-02-06T09:27:03.418Z,88.80
2023-02-06T09:29:34.066Z,88.30
2023-02-06T09:32:02.305Z,88.02
2023-02-06T09:34:30.785Z,88.05
2023-02-06T09:37:01.396Z,87.28
2023-02-06T09:39:30.539Z,86.67
2023-02-06T09:42:11.555Z,86.12
2023-02-06T09:44:47.979Z,85.38
2023-02-06T09:47:27.092Z,85.36
2023-02-06T09:49:59.543Z,83.90
2023-02-06T09:52:33.140Z,82.85
2023-02-06T09:55:15.767Z,82.19
2023-02-06T09:58:06.704Z,80.68
2023-02-06T10:00:37.904Z,79.95
2023-02-06T10:03:27.099Z,79.78
2023-02-06T10:06:29.427Z,80.23
2023-02-06T10:09:03.194Z,78.37
2023-02-06T10:11:50.026Z,77.23
2023-02-06T10:14:18.000Z,76.95
2023-02-06T10:17:08.727Z,77.66
2023-02-06T10:19:49.180Z,76.81
2023-02-06T10:22:24.361Z,76.44
2023-02-06T10:25:11.578Z,76.13
2023-02-06T10:27:42.930Z,76.23
2023-02-06T10:30:20.520Z,74.79
2023-02-06T10:32:57.078Z,73.09
2023-02-06T10:36:03.186Z,72.21
2023-02-06T10:39:06.451Z,72.59
2023-02-06T10:42:10.990Z,73.38
2023-02-06T10:44:51.456Z,72.24
2023-02-06T10:47:37.433Z,71.76
2023-02-06T10:50:25.839Z,70.54
2023-02-06T10:52:57.073Z,70.50
2023-02-06T10:55:31.751Z,70.86
2023-02-06T10:58:13.458Z,69.98
2023-02-06T11:00:44.084Z,69.80
2023-02-06T11:03:20.606Z,70.10
2023-02-06T11:05:48.521Z,70.05
2023-02-06T11:08:20.891Z,70.98
2023-02-06T11:10:49.039Z,71.69
2023-02-06T11:13:48.699Z,71.93
2023-02-06T11:16:24.676Z,72.16
2023-02-06T11:18:55.572Z,72.70
2023-02-06T11:21:41.664Z,72.20
2023-02-06T11:24:12.188Z,71.74
2023-02-06T11:26:51.587Z,72.01
2023-02-06T11:29:32.399Z,70.28
2023-02-06T11:32:07.098Z,68.99
2023-02-06T11:34:54.683Z,67.75
2023-02-06T11:37:51.971Z,65.75
2023-02-06T11:40:20.004Z,63.18
2023-02-06T11:42:51.263Z,61.91
2023-02-06T11:45:32.142Z,60.48
2023-02-06T11:48:01.224Z,59.23
2023-02-06T11:50:30.915Z,56.47
2023-02-06T11:53:08.268Z,56.26
2023-02-06T11:55:38.618Z,54.82
2023-02-06T11:58:09.647Z,52.54
2023-02-06T12:00:40.239Z,50.60
2023-02-06T12:03:27.512Z,50.68
2023-02-06T12:06:11.712Z,49.69
2023-02-06T12:08:51.063Z,50.55
2023-02-06T12:11:49.484Z,52.48
2023-02-06T12:14:23.084Z,51.63
2023-02-06T12:16:52.645Z,51.86
2023-02-06T12:19:32.297Z,53.22
2023-02-06T12:22:12.463Z,52.76
2023-02-06T12:24:48.307Z,53.43
2023-02-06T12:27:38.893Z,55.49
2023-02-06T12:30:29.356Z,57.49
2023-02-06T12:33:07.296Z,58.11
2023-02-06T12:35:42.714Z,58.46
2023-02-06T12:38:19.120Z,54.98
2023-02-06T12:40:51.115Z,54.91
2023-02-06T12:43:20.149Z,53.00
2023-02-06T12:45:50.711Z,54.76
2023-02-06T12:48:21.857Z,54.91
2023-02-06T12:51:12.830Z,53.29
2023-02-06T12:53:49.172Z,53.67
2023-02-06T12:56:45.592Z,53.40
2023-02-06T12:59:22.263Z,53.80
2023-02-06T13:01:57.255Z,54.58
2023-02-06T13:04:30.431Z,54.74
2023-02-06T13:07:09.422Z,54.53
2023-02-06T13:09:48.221Z,54.35
2023-02-06T13:12:21.992Z,53.56
2023-02-06T13:15:03.446Z,54.55
2023-02-06T13:17:35.806Z,54.84
2023-02-06T13:20:15.764Z,55.33
2023-02-06T13:22:45.416Z,54.95
2023-02-06T13:25:31.909Z,55.63
2023-02-06T13:28:02.147Z,57.34
2023-02-06T13:30:30.145Z,58.17
2023-02-06T13:33:11.010Z,58.79
2023-02-06T13:35:56.380Z,59.22
2023-02-06T13:38:24.318Z,60.73
2023-02-06T13:41:14.184Z,61.48
2023-02-06T13:43:55.779Z,62.17
2023-02-06T13:47:06.032Z,61.95
2023-02-06T13:50:05.022Z,62.42
2023-02-06T13:52:54.400Z,62.86
2023-02-06T13:56:00.784Z,63.65
2023-02-06T13:58:58.004Z,64.71
2023-02-06T14:01:30.114Z,65.48
2023-02-06T14:03:59.004Z,65.62
2023-02-06T14:06:39.614Z,65.83
2023-02-06T14:09:48.744Z,66.29
2023-02-06T14:12:53.536Z,66.74
2023-02-06T14:15:39.303Z,67.08
2023-02-06T14:18:13.662Z,67.28
2023-02-06T14:20:51.945Z,67.53
2023-02-06T14:23:32.007Z,67.46
2023-02-06T14:26:08.351Z,67.88
2023-02-06T14:29:05.011Z,68.07
2023-02-06T14:32:10.624Z,68.14
2023-02-06T14:35:03.401Z,68.34
2023-02-06T14:37:44.992Z,68.44
2023-02-06T14:40:27.338Z,68.78
2023-02-06T14:43:02.599Z,69.98
2023-02-06T14:45:41.768Z,71.44
2023-02-06T14:48:23.861Z,71.75
2023-02-06T14:50:56.611Z,71.27
2023-02-06T14:53:30.273Z,71.32
2023-02-06T14:56:17.564Z,71.57
2023-02-06T14:58:46.330Z,71.51
2023-02-06T15:01:17.373Z,71.49
2023-02-06T15:03:48.406Z,71.31
2023-02-06T15:06:31.239Z,71.51
2023-02-06T15:08:59.763Z,71.96
2023-02-06T15:11:30.388Z,72.26
2023-02-06T15:14:02.257Z,72.32
2023-02-06T15:16:30.694Z,72.41
2023-02-06T15:19:24.874Z,72.53
2023-02-06T15:22:01.900Z,72.74
2023-02-06T15:24:56.554Z,72.61
2023-02-06T15:27:30.551Z,73.20
2023-02-06T15:29:59.661Z,73.41
2023-02-06T15:32:38.093Z,73.74
2023-02-06T15:35:40.448Z,73.67
2023-02-06T15:38:15.570Z,73.59
2023-02-06T15:40:49.249Z,73.98
2023-02-06T15:43:20.217Z,74.34
2023-02-06T15:45:50.636Z,74.52
2023-02-06T15:48:38.475Z,74.71
2023-02-06T15:51:21.602Z,74.77
2023-02-06T15:53:51.725Z,74.90
2023-02-06T15:56:30.194Z,74.96
2023-02-06T15:59:04.402Z,75.40
2023-02-06T16:01:37.266Z,75.47
2023-02-06T16:04:32.109Z,75.89
2023-02-06T16:07:27.302Z,76.06
2023-02-06T16:10:04.802Z,76.17
2023-02-06T16:12:35.794Z,76.42
2023-02-06T16:15:21.173Z,76.52
2023-02-06T16:17:49.197Z,76.74
2023-02-06T16:20:29.334Z,76.92
2023-02-06T16:23:17.802Z,77.18
2023-02-06T16:26:06.093Z,77.67
2023-02-06T16:28:49.675Z,77.55
2023-02-06T16:31:17.676Z,77.74
2023-02-06T16:33:49.462Z,77.68
2023-02-06T16:36:19.245Z,78.07
2023-02-06T16:38:54.224Z,78.16
2023-02-06T16:41:34.546Z,78.50
2023-02-06T16:44:04.818Z,78.60
2023-02-06T16:46:32.928Z,79.04
2023-02-06T16:49:01.211Z,79.05
2023-02-06T16:51:31.968Z,78.95
2023-02-06T16:54:01.998Z,79.32
2023-02-06T16:56:31.396Z,79.08
2023-02-06T16:58:59.422Z,79.19
2023-02-06T17:04:28.943Z,79.46
2023-02-06T17:06:57.446Z,79.44
2023-02-06T17:09:25.600Z,79.64
2023-02-06T17:11:54.171Z,79.87
2023-02-06T17:14:23.247Z,79.78
2023-02-06T17:16:51.263Z,79.77
2023-02-06T17:19:19.629Z,79.80
2023-02-06T17:24:57.180Z,79.88
2023-02-06T17:27:25.484Z,79.96
2023-02-06T17:29:53.587Z,79.98
2023-02-06T17:32:22.218Z,80.00
2023-02-06T17:34:52.500Z,80.15
2023-02-06T17:37:22.266Z,80.12
2023-02-06T17:39:52.180Z,80.50
2023-02-06T17:42:21.278Z,80.47
2023-02-06T17:44:49.489Z,80.42
2023-02-06T17:47:17.852Z,80.48
2023-02-06T17:49:45.907Z,80.54
2023-02-06T17:52:14.139Z,80.51
2023-02-06T17:54:42.834Z,80.78
2023-02-06T17:57:11.606Z,81.05
2023-02-06T17:59:39.828Z,81.01
2023-02-06T18:02:13.574Z,81.16
2023-02-06T18:04:42.038Z,81.24
2023-02-06T18:07:10.270Z,81.40
2023-02-06T18:09:39.576Z,81.78
2023-02-06T18:12:09.124Z,81.80
2023-02-06T18:14:37.271Z,82.13
2023-02-06T18:17:05.681Z,81.87
2023-02-06T18:19:34.117Z,82.14
2023-02-06T18:22:02.105Z,82.21
2023-02-06T18:24:30.201Z,82.10
2023-02-06T18:26:58.372Z,82.07
2023-02-06T18:29:28.127Z,82.08
2023-02-06T18:32:01.057Z,82.18
2023-02-06T18:37:37.951Z,82.71
2023-02-06T18:40:06.415Z,82.84
2023-02-06T18:42:34.416Z,82.51
2023-02-06T18:45:04.231Z,82.34
2023-02-06T18:47:32.553Z,81.96
2023-02-06T18:50:00.588Z,82.02
2023-02-06T18:52:29.263Z,82.13
2023-02-06T18:54:57.351Z,82.08
2023-02-06T18:57:25.627Z,82.07
2023-02-06T18:59:53.846Z,82.07
2023-02-06T19:02:21.907Z,82.42
2023-02-06T19:04:49.886Z,82.87
2023-02-06T19:07:18.388Z,83.17
2023-02-06T19:09:48.048Z,83.03
2023-02-06T19:12:16.308Z,82.55
2023-02-06T19:14:44.658Z,82.10
2023-02-06T19:17:12.924Z,81.83
2023-02-06T19:19:40.924Z,81.63
2023-02-06T19:22:09.162Z,81.34
2023-02-06T19:24:37.545Z,81.83
2023-02-06T19:27:05.630Z,82.00
2023-02-06T19:32:28.485Z,82.50
2023-02-06T19:34:56.493Z,82.77
2023-02-06T19:37:25.127Z,82.70
2023-02-06T19:39:54.093Z,83.29
2023-02-06T19:42:22.043Z,83.84
2023-02-06T19:44:54.336Z,83.47
2023-02-06T19:47:24.225Z,83.30
2023-02-06T19:49:53.083Z,83.10
2023-02-06T19:52:21.313Z,82.81
2023-02-06T19:54:49.361Z,83.26
2023-02-06T19:57:17.665Z,84.03
2023-02-06T19:59:45.808Z,83.96
2023-02-06T20:02:16.869Z,82.83
2023-02-06T20:04:44.993Z,82.58
2023-02-06T20:07:13.403Z,82.37
2023-02-06T20:09:41.495Z,82.21
2023-02-06T20:12:11.235Z,82.32
2023-02-06T20:14:39.407Z,82.36
2023-02-06T20:17:08.598Z,82.38
2023-02-06T20:19:36.864Z,82.11
2023-02-06T20:22:05.226Z,82.77
2023-02-06T20:24:34.085Z,83.03
2023-02-06T20:27:03.993Z,83.11
2023-02-06T20:29:36.017Z,83.06
2023-02-06T20:32:05.572Z,82.80
2023-02-06T20:34:34.996Z,82.64
2023-02-06T20:37:04.527Z,83.09
2023-02-06T20:39:33.811Z,83.26
2023-02-06T20:42:02.110Z,83.62
2023-02-06T20:44:31.085Z,83.80
2023-02-06T20:46:59.382Z,83.75
2023-02-06T20:49:28.878Z,83.79
2023-02-06T20:51:57.246Z,83.49
2023-02-06T20:54:26.003Z,83.73
2023-02-06T20:56:54.235Z,84.30
2023-02-06T20:59:22.882Z,84.39
2023-02-06T21:01:51.390Z,84.52
2023-02-06T21:04:20.193Z,84.54
2023-02-06T21:06:48.658Z,84.56
2023-02-06T21:09:17.853Z,84.84
2023-02-06T21:11:48.649Z,85.05
2023-02-06T21:14:18.308Z,83.77
2023-02-06T21:16:47.125Z,83.07
2023-02-06T21:19:19.488Z,83.33
2023-02-06T21:21:48.292Z,84.00
2023-02-06T21:24:17.336Z,84.40
2023-02-06T21:26:45.378Z,84.57
2023-02-06T21:29:14.790Z,84.61
2023-02-06T21:31:43.588Z,84.46
2023-02-06T21:34:20.755Z,84.67
2023-02-06T21:36:49.134Z,84.99
2023-02-06T21:39:23.038Z,84.74
2023-02-06T21:41:51.006Z,85.13
2023-02-06T21:44:19.793Z,84.72
2023-02-06T21:46:47.648Z,84.23
2023-02-06T21:49:15.628Z,84.37
2023-02-06T21:51:43.557Z,84.59
2023-02-06T21:54:11.494Z,84.21
2023-02-06T21:56:39.499Z,84.01
2023-02-06T21:59:09.507Z,83.98
2023-02-06T22:01:37.817Z,83.66
2023-02-06T22:04:07.125Z,84.06
2023-02-06T22:06:35.216Z,83.53
2023-02-06T22:09:05.571Z,83.06
2023-02-06T22:11:36.415Z,82.91
2023-02-06T22:14:11.698Z,83.06
2023-02-06T22:16:40.347Z,82.81
2023-02-06T22:19:09.794Z,83.02
2023-02-06T22:21:37.705Z,82.81
2023-02-06T22:24:07.293Z,83.36
2023-02-06T22:26:36.920Z,83.60
2023-02-06T22:29:11.676Z,83.17
2023-02-06T22:31:40.974Z,83.01
2023-02-06T22:34:20.829Z,82.65
2023-02-06T22:36:49.595Z,82.42
2023-02-06T22:39:17.903Z,82.12
2023-02-06T22:41:46.612Z,82.17
2023-02-06T22:44:16.256Z,82.13
2023-02-06T22:46:50.398Z,82.51
2023-02-06T22:49:20.134Z,82.20
2023-02-06T22:51:48.091Z,82.39
2023-02-06T22:54:16.162Z,82.27
2023-02-06T22:56:44.936Z,81.91
2023-02-06T22:59:21.725Z,81.85
2023-02-06T23:01:52.564Z,82.10
2023-02-06T23:04:23.801Z,81.55
2023-02-06T23:06:52.912Z,82.06
2023-02-06T23:09:24.137Z,81.44
2023-02-06T23:11:53.075Z,81.46
2023-02-06T23:14:21.220Z,82.19
2023-02-06T23:16:49.480Z,82.33
2023-02-06T23:19:19.420Z,82.28
2023-02-06T23:21:49.571Z,82.01
2023-02-06T23:24:18.847Z,81.46
2023-02-06T23:26:49.237Z,81.62
2023-02-06T23:29:18.877Z,81.38
2023-02-06T23:31:47.983Z,81.54
2023-02-06T23:34:17.297Z,81.98
2023-02-06T23:36:46.490Z,81.83
2023-02-06T23:39:15.207Z,81.35
2023-02-06T23:41:43.146Z,81.94
2023-02-06T23:44:11.221Z,81.48
2023-02-06T23:46:40.434Z,81.84
2023-02-06T23:49:08.861Z,81.60
2023-02-06T23:51:37.393Z,81.81
2023-02-06T23:54:07.027Z,81.48
2023-02-06T23:56:35.546Z,81.92
2023-02-06T23:59:05.123Z,81.84
